createdAt,value
2023-01-19T00:03:58.435Z,28.3
2023-01-19T00:23:58.474Z,28.28
2023-01-19T01:03:58.485Z,28.25
2023-01-19T01:23:58.481Z,28.26
2023-01-19T01:43:58.690Z,28.21
2023-01-19T02:03:58.488Z,28.19
2023-01-19T02:23:58.494Z,28.17
2023-01-19T02:43:58.344Z,28.18
2023-01-19T03:03:58.480Z,28.15
2023-01-19T03:23:58.481Z,28.14
2023-01-19T03:43:57.735Z,28.11
2023-01-19T04:03:58.487Z,28.11
2023-01-19T04:43:58.515Z,28.07
2023-01-19T05:03:58.505Z,28.05
2023-01-19T05:23:58.534Z,28.04
2023-01-19T05:43:58.534Z,28.03
2023-01-19T06:23:58.543Z,28.02
2023-01-19T06:43:58.566Z,28.02
2023-01-19T07:03:58.557Z,28.02
2023-01-19T07:24:05.592Z,28.02
2023-01-19T07:43:58.585Z,28.02
2023-01-19T08:03:58.643Z,28.03
2023-01-19T08:23:58.652Z,28.05
2023-01-19T08:44:05.491Z,28.07
2023-01-19T09:03:58.624Z,28.08
2023-01-19T09:23:58.618Z,28.09
2023-01-19T09:43:58.133Z,28.1
2023-01-19T10:03:58.632Z,28.1
2023-01-19T10:23:58.719Z,28.11
2023-01-19T10:43:58.135Z,28.11
2023-01-19T11:03:58.663Z,28.12
2023-01-19T11:23:58.743Z,28.12
2023-01-19T11:43:58.660Z,28.13
2023-01-19T12:23:57.923Z,28.14
2023-01-19T12:43:58.665Z,28.15
2023-01-19T13:03:58.670Z,28.15
2023-01-19T13:23:57.902Z,28.16
2023-01-19T13:43:58.690Z,28.16
2023-01-19T14:03:58.669Z,28.16
2023-01-19T14:23:58.772Z,28.16
2023-01-19T14:43:58.682Z,28.15
2023-01-19T15:03:58.690Z,28.15
2023-01-19T15:23:58.718Z,28.14
2023-01-19T15:43:58.187Z,28.14
2023-01-19T16:03:58.700Z,28.13
2023-01-19T16:23:58.707Z,28.12
2023-01-19T16:43:58.716Z,28.12
2023-01-19T17:03:58.589Z,28.11
2023-01-19T17:43:58.738Z,28.09
2023-01-19T18:03:58.597Z,28.08
2023-01-19T18:23:58.736Z,28.06
2023-01-19T18:43:58.820Z,28.05
2023-01-19T19:03:58.634Z,28.04
2023-01-19T19:23:58.752Z,28.03
2023-01-19T19:43:58.655Z,28.02
2023-01-19T20:03:58.013Z,28.01
2023-01-19T20:23:58.077Z,28
2023-01-19T20:43:58.861Z,28
2023-01-19T21:03:58.791Z,27.99
2023-01-19T21:23:58.791Z,27.98
2023-01-19T21:43:58.804Z,27.97
2023-01-19T22:03:58.806Z,27.96
2023-01-19T22:23:58.687Z,27.95
2023-01-19T22:43:58.819Z,27.94
2023-01-19T23:03:58.862Z,27.92
2023-01-19T23:23:58.835Z,27.91
2023-01-19T23:43:58.820Z,27.9
